sensor_id;sensor_type;location;lat;lon;timestamp;P1;durP1;ratioP1;P2;durP2;ratioP2
4363;SDS011;15337;48.202;12.770;2022-07-18T00:02:04;5.07;;;4.70;;
4363;SDS011;15337;48.202;12.770;2022-07-18T00:04:32;5.87;;;5.40;;
4363;SDS011;15337;48.202;12.770;2022-07-18T00:06:59;4.60;;;4.40;;
4363;SDS011;15337;48.202;12.770;2022-07-18T00:09:27;5.90;;;5.60;;
4363;SDS011;15337;48.202;12.770;2022-07-18T00:11:54;5.57;;;5.10;;
4363;SDS011;15337;48.202;12.770;2022-07-18T00:14:21;6.10;;;5.80;;
4363;SDS011;15337;48.202;12.770;2022-07-18T00:16:49;5.53;;;5.10;;
4363;SDS011;15337;48.202;12.770;2022-07-18T00:19:16;5.93;;;5.53;;
4363;SDS011;15337;48.202;12.770;2022-07-18T00:21:43;5.67;;;5.37;;
4363;SDS011;15337;48.202;12.770;2022-07-18T00:24:10;6.73;;;5.97;;
4363;SDS011;15337;48.202;12.770;2022-07-18T00:26:39;5.10;;;4.80;;
4363;SDS011;15337;48.202;12.770;2022-07-18T00:29:06;5.63;;;5.23;;
4363;SDS011;15337;48.202;12.770;2022-07-18T00:31:33;5.97;;;5.67;;
4363;SDS011;15337;48.202;12.770;2022-07-18T00:34:00;5.93;;;5.73;;
4363;SDS011;15337;48.202;12.770;2022-07-18T00:36:28;5.50;;;5.20;;
4363;SDS011;15337;48.202;12.770;2022-07-18T00:38:55;5.97;;;5.60;;
4363;SDS011;15337;48.202;12.770;2022-07-18T00:41:23;7.20;;;6.43;;
4363;SDS011;15337;48.202;12.770;2022-07-18T00:43:51;6.43;;;6.03;;
4363;SDS011;15337;48.202;12.770;2022-07-18T00:46:20;5.00;;;4.70;;
4363;SDS011;15337;48.202;12.770;2022-07-18T00:48:48;6.37;;;6.07;;
4363;SDS011;15337;48.202;12.770;2022-07-18T00:51:15;6.90;;;6.40;;
4363;SDS011;15337;48.202;12.770;2022-07-18T00:53:43;5.73;;;5.30;;
4363;SDS011;15337;48.202;12.770;2022-07-18T00:56:10;7.13;;;6.83;;
4363;SDS011;15337;48.202;12.770;2022-07-18T00:58:38;5.47;;;5.20;;
4363;SDS011;15337;48.202;12.770;2022-07-18T01:01:07;5.77;;;5.37;;
4363;SDS011;15337;48.202;12.770;2022-07-18T01:03:51;5.90;;;5.50;;
4363;SDS011;15337;48.202;12.770;2022-07-18T01:06:18;7.03;;;5.70;;
4363;SDS011;15337;48.202;12.770;2022-07-18T01:08:45;6.07;;;5.30;;
4363;SDS011;15337;48.202;12.770;2022-07-18T01:11:12;5.70;;;5.30;;
4363;SDS011;15337;48.202;12.770;2022-07-18T01:13:39;6.10;;;5.63;;
4363;SDS011;15337;48.202;12.770;2022-07-18T01:16:08;6.50;;;5.80;;
4363;SDS011;15337;48.202;12.770;2022-07-18T01:18:35;6.50;;;6.20;;
4363;SDS011;15337;48.202;12.770;2022-07-18T01:21:03;5.60;;;5.30;;
4363;SDS011;15337;48.202;12.770;2022-07-18T01:23:30;5.63;;;5.13;;
4363;SDS011;15337;48.202;12.770;2022-07-18T01:25:57;5.27;;;5.00;;
4363;SDS011;15337;48.202;12.770;2022-07-18T01:28:24;5.90;;;5.60;;
4363;SDS011;15337;48.202;12.770;2022-07-18T01:30:51;6.30;;;6.00;;
4363;SDS011;15337;48.202;12.770;2022-07-18T01:33:18;5.67;;;5.20;;
4363;SDS011;15337;48.202;12.770;2022-07-18T01:35:45;7.00;;;6.43;;
4363;SDS011;15337;48.202;12.770;2022-07-18T01:38:13;6.27;;;5.97;;
4363;SDS011;15337;48.202;12.770;2022-07-18T01:40:42;6.97;;;6.37;;
4363;SDS011;15337;48.202;12.770;2022-07-18T01:43:09;6.67;;;6.17;;
4363;SDS011;15337;48.202;12.770;2022-07-18T01:45:36;5.80;;;5.50;;
4363;SDS011;15337;48.202;12.770;2022-07-18T01:48:04;6.20;;;5.90;;
4363;SDS011;15337;48.202;12.770;2022-07-18T01:50:31;5.17;;;4.87;;
4363;SDS011;15337;48.202;12.770;2022-07-18T01:52:58;7.00;;;6.43;;
4363;SDS011;15337;48.202;12.770;2022-07-18T01:55:27;5.37;;;5.10;;
4363;SDS011;15337;48.202;12.770;2022-07-18T01:57:54;6.37;;;5.87;;
4363;SDS011;15337;48.202;12.770;2022-07-18T02:00:21;6.83;;;6.53;;
4363;SDS011;15337;48.202;12.770;2022-07-18T02:02:48;5.43;;;5.13;;
4363;SDS011;15337;48.202;12.770;2022-07-18T02:05:15;5.87;;;5.40;;
4363;SDS011;15337;48.202;12.770;2022-07-18T02:07:42;5.30;;;5.10;;
4363;SDS011;15337;48.202;12.770;2022-07-18T02:10:10;5.87;;;5.57;;
4363;SDS011;15337;48.202;12.770;2022-07-18T02:12:41;6.33;;;5.90;;
4363;SDS011;15337;48.202;12.770;2022-07-18T02:15:08;6.23;;;5.93;;
4363;SDS011;15337;48.202;12.770;2022-07-18T02:17:37;5.67;;;5.27;;
4363;SDS011;15337;48.202;12.770;2022-07-18T02:20:04;12.30;;;5.90;;
4363;SDS011;15337;48.202;12.770;2022-07-18T02:22:32;6.20;;;5.90;;
4363;SDS011;15337;48.202;12.770;2022-07-18T02:24:59;6.57;;;6.23;;
4363;SDS011;15337;48.202;12.770;2022-07-18T02:27:26;6.00;;;5.70;;
4363;SDS011;15337;48.202;12.770;2022-07-18T02:29:55;6.30;;;5.80;;
4363;SDS011;15337;48.202;12.770;2022-07-18T02:32:21;6.30;;;5.70;;
4363;SDS011;15337;48.202;12.770;2022-07-18T02:34:49;6.30;;;5.90;;
4363;SDS011;15337;48.202;12.770;2022-07-18T02:37:16;11.33;;;6.57;;
4363;SDS011;15337;48.202;12.770;2022-07-18T02:39:43;6.70;;;6.20;;
4363;SDS011;15337;48.202;12.770;2022-07-18T02:42:10;8.23;;;6.33;;
4363;SDS011;15337;48.202;12.770;2022-07-18T02:44:37;8.43;;;7.80;;
4363;SDS011;15337;48.202;12.770;2022-07-18T02:47:05;6.20;;;5.80;;
4363;SDS011;15337;48.202;12.770;2022-07-18T02:49:32;8.00;;;7.27;;
4363;SDS011;15337;48.202;12.770;2022-07-18T02:52:00;6.80;;;6.40;;
4363;SDS011;15337;48.202;12.770;2022-07-18T02:54:29;6.53;;;6.13;;
4363;SDS011;15337;48.202;12.770;2022-07-18T02:56:57;8.07;;;7.23;;
4363;SDS011;15337;48.202;12.770;2022-07-18T02:59:24;6.60;;;6.30;;
4363;SDS011;15337;48.202;12.770;2022-07-18T03:01:52;7.43;;;6.90;;
4363;SDS011;15337;48.202;12.770;2022-07-18T03:04:20;7.23;;;6.73;;
4363;SDS011;15337;48.202;12.770;2022-07-18T03:06:48;7.30;;;6.60;;
4363;SDS011;15337;48.202;12.770;2022-07-18T03:09:16;6.47;;;6.07;;
4363;SDS011;15337;48.202;12.770;2022-07-18T03:11:43;7.40;;;7.00;;
4363;SDS011;15337;48.202;12.770;2022-07-18T03:14:10;7.30;;;6.63;;
4363;SDS011;15337;48.202;12.770;2022-07-18T03:16:37;6.70;;;6.40;;
4363;SDS011;15337;48.202;12.770;2022-07-18T03:19:04;6.60;;;6.20;;
4363;SDS011;15337;48.202;12.770;2022-07-18T03:21:33;6.13;;;5.83;;
4363;SDS011;15337;48.202;12.770;2022-07-18T03:24:00;7.07;;;6.57;;
4363;SDS011;15337;48.202;12.770;2022-07-18T03:26:27;7.63;;;6.90;;
4363;SDS011;15337;48.202;12.770;2022-07-18T03:28:54;6.60;;;6.30;;
4363;SDS011;15337;48.202;12.770;2022-07-18T03:31:21;14.33;;;6.00;;
4363;SDS011;15337;48.202;12.770;2022-07-18T03:33:48;6.63;;;6.23;;
4363;SDS011;15337;48.202;12.770;2022-07-18T03:36:14;6.00;;;5.70;;
4363;SDS011;15337;48.202;12.770;2022-07-18T03:38:43;8.53;;;6.00;;
4363;SDS011;15337;48.202;12.770;2022-07-18T03:41:10;6.47;;;6.17;;
4363;SDS011;15337;48.202;12.770;2022-07-18T03:43:38;6.83;;;6.13;;
4363;SDS011;15337;48.202;12.770;2022-07-18T03:46:05;7.60;;;7.20;;
4363;SDS011;15337;48.202;12.770;2022-07-18T03:48:32;6.57;;;6.07;;
4363;SDS011;15337;48.202;12.770;2022-07-18T03:51:00;8.43;;;7.60;;
4363;SDS011;15337;48.202;12.770;2022-07-18T03:53:28;6.70;;;6.40;;
4363;SDS011;15337;48.202;12.770;2022-07-18T03:55:56;7.93;;;7.43;;
4363;SDS011;15337;48.202;12.770;2022-07-18T03:58:23;7.80;;;7.40;;
4363;SDS011;15337;48.202;12.770;2022-07-18T04:00:50;7.57;;;7.10;;
4363;SDS011;15337;48.202;12.770;2022-07-18T04:03:17;5.60;;;5.33;;
4363;SDS011;15337;48.202;12.770;2022-07-18T04:05:44;6.17;;;5.83;;
4363;SDS011;15337;48.202;12.770;2022-07-18T04:08:11;6.10;;;5.77;;
4363;SDS011;15337;48.202;12.770;2022-07-18T04:10:38;6.67;;;6.33;;
4363;SDS011;15337;48.202;12.770;2022-07-18T04:13:07;6.23;;;5.27;;
4363;SDS011;15337;48.202;12.770;2022-07-18T04:15:35;6.80;;;6.20;;
4363;SDS011;15337;48.202;12.770;2022-07-18T04:18:03;6.93;;;6.47;;
4363;SDS011;15337;48.202;12.770;2022-07-18T04:20:30;6.17;;;5.87;;
4363;SDS011;15337;48.202;12.770;2022-07-18T04:22:59;6.47;;;5.80;;
4363;SDS011;15337;48.202;12.770;2022-07-18T04:25:28;6.27;;;5.97;;
4363;SDS011;15337;48.202;12.770;2022-07-18T04:27:59;6.47;;;6.13;;
4363;SDS011;15337;48.202;12.770;2022-07-18T04:30:27;7.73;;;7.03;;
4363;SDS011;15337;48.202;12.770;2022-07-18T04:32:55;6.60;;;6.00;;
4363;SDS011;15337;48.202;12.770;2022-07-18T04:35:22;6.33;;;5.50;;
4363;SDS011;15337;48.202;12.770;2022-07-18T04:37:50;6.87;;;6.47;;
4363;SDS011;15337;48.202;12.770;2022-07-18T04:40:17;7.07;;;6.60;;
4363;SDS011;15337;48.202;12.770;2022-07-18T04:42:45;10.43;;;6.33;;
4363;SDS011;15337;48.202;12.770;2022-07-18T04:45:12;7.03;;;6.63;;
4363;SDS011;15337;48.202;12.770;2022-07-18T04:47:41;6.97;;;6.27;;
4363;SDS011;15337;48.202;12.770;2022-07-18T04:50:08;7.20;;;6.90;;
4363;SDS011;15337;48.202;12.770;2022-07-18T04:52:36;7.90;;;6.57;;
4363;SDS011;15337;48.202;12.770;2022-07-18T04:55:05;22.33;;;8.73;;
4363;SDS011;15337;48.202;12.770;2022-07-18T04:57:33;21.73;;;7.97;;
4363;SDS011;15337;48.202;12.770;2022-07-18T05:00:00;16.60;;;7.77;;
4363;SDS011;15337;48.202;12.770;2022-07-18T05:02:29;14.23;;;8.47;;
4363;SDS011;15337;48.202;12.770;2022-07-18T05:04:57;15.60;;;7.30;;
4363;SDS011;15337;48.202;12.770;2022-07-18T05:07:25;8.50;;;7.00;;
4363;SDS011;15337;48.202;12.770;2022-07-18T05:09:52;8.13;;;7.37;;
4363;SDS011;15337;48.202;12.770;2022-07-18T05:12:19;6.97;;;6.57;;
4363;SDS011;15337;48.202;12.770;2022-07-18T05:14:48;12.43;;;7.37;;
4363;SDS011;15337;48.202;12.770;2022-07-18T05:17:15;8.60;;;6.33;;
4363;SDS011;15337;48.202;12.770;2022-07-18T05:19:42;18.27;;;9.03;;
4363;SDS011;15337;48.202;12.770;2022-07-18T05:22:11;8.83;;;8.00;;
4363;SDS011;15337;48.202;12.770;2022-07-18T05:24:38;10.90;;;7.70;;
4363;SDS011;15337;48.202;12.770;2022-07-18T05:27:05;7.83;;;7.43;;
4363;SDS011;15337;48.202;12.770;2022-07-18T05:29:32;8.57;;;7.77;;
4363;SDS011;15337;48.202;12.770;2022-07-18T05:31:59;8.30;;;7.50;;
4363;SDS011;15337;48.202;12.770;2022-07-18T05:34:26;7.90;;;7.50;;
4363;SDS011;15337;48.202;12.770;2022-07-18T05:36:53;13.30;;;7.10;;
4363;SDS011;15337;48.202;12.770;2022-07-18T05:39:21;12.00;;;7.37;;
4363;SDS011;15337;48.202;12.770;2022-07-18T05:41:48;7.80;;;7.00;;
4363;SDS011;15337;48.202;12.770;2022-07-18T05:44:15;12.40;;;7.10;;
4363;SDS011;15337;48.202;12.770;2022-07-18T05:46:45;8.07;;;7.57;;
4363;SDS011;15337;48.202;12.770;2022-07-18T05:49:12;8.40;;;7.10;;
4363;SDS011;15337;48.202;12.770;2022-07-18T05:51:39;7.83;;;7.23;;
4363;SDS011;15337;48.202;12.770;2022-07-18T05:54:06;8.27;;;7.70;;
4363;SDS011;15337;48.202;12.770;2022-07-18T05:56:34;8.87;;;8.07;;
4363;SDS011;15337;48.202;12.770;2022-07-18T05:59:01;8.27;;;7.60;;
4363;SDS011;15337;48.202;12.770;2022-07-18T06:01:29;7.60;;;6.87;;
4363;SDS011;15337;48.202;12.770;2022-07-18T06:03:56;8.40;;;7.63;;
4363;SDS011;15337;48.202;12.770;2022-07-18T06:06:23;8.70;;;7.13;;
4363;SDS011;15337;48.202;12.770;2022-07-18T06:08:50;7.70;;;7.10;;
4363;SDS011;15337;48.202;12.770;2022-07-18T06:11:17;6.70;;;6.40;;
4363;SDS011;15337;48.202;12.770;2022-07-18T06:13:45;7.35;;;6.95;;
4363;SDS011;15337;48.202;12.770;2022-07-18T06:16:12;7.05;;;6.45;;
4363;SDS011;15337;48.202;12.770;2022-07-18T06:18:39;6.82;;;6.47;;
4363;SDS011;15337;48.202;12.770;2022-07-18T06:21:06;7.30;;;6.60;;
4363;SDS011;15337;48.202;12.770;2022-07-18T06:23:33;6.82;;;6.32;;
4363;SDS011;15337;48.202;12.770;2022-07-18T06:26:01;6.20;;;5.82;;
4363;SDS011;15337;48.202;12.770;2022-07-18T06:28:28;7.25;;;6.55;;
4363;SDS011;15337;48.202;12.770;2022-07-18T06:30:57;7.03;;;6.35;;
4363;SDS011;15337;48.202;12.770;2022-07-18T06:33:24;7.07;;;6.57;;
4363;SDS011;15337;48.202;12.770;2022-07-18T06:35:51;7.20;;;6.60;;
4363;SDS011;15337;48.202;12.770;2022-07-18T06:38:18;6.85;;;6.32;;
4363;SDS011;15337;48.202;12.770;2022-07-18T06:40:45;7.03;;;6.57;;
4363;SDS011;15337;48.202;12.770;2022-07-18T06:43:12;8.55;;;6.30;;
4363;SDS011;15337;48.202;12.770;2022-07-18T06:45:44;11.77;;;6.60;;
4363;SDS011;15337;48.202;12.770;2022-07-18T06:48:12;7.10;;;6.63;;
4363;SDS011;15337;48.202;12.770;2022-07-18T06:50:39;6.13;;;5.82;;
4363;SDS011;15337;48.202;12.770;2022-07-18T06:53:06;7.07;;;6.47;;
4363;SDS011;15337;48.202;12.770;2022-07-18T06:55:33;12.35;;;7.07;;
4363;SDS011;15337;48.202;12.770;2022-07-18T06:58:00;9.75;;;6.47;;
4363;SDS011;15337;48.202;12.770;2022-07-18T07:00:27;8.35;;;6.72;;
4363;SDS011;15337;48.202;12.770;2022-07-18T07:02:54;6.10;;;5.70;;
4363;SDS011;15337;48.202;12.770;2022-07-18T07:05:23;6.45;;;5.97;;
4363;SDS011;15337;48.202;12.770;2022-07-18T07:07:50;7.45;;;6.05;;
4363;SDS011;15337;48.202;12.770;2022-07-18T07:10:18;5.93;;;5.45;;
4363;SDS011;15337;48.202;12.770;2022-07-18T07:12:46;6.68;;;6.32;;
4363;SDS011;15337;48.202;12.770;2022-07-18T07:15:14;5.63;;;5.22;;
4363;SDS011;15337;48.202;12.770;2022-07-18T07:17:44;5.72;;;5.05;;
4363;SDS011;15337;48.202;12.770;2022-07-18T07:20:11;5.25;;;4.85;;
4363;SDS011;15337;48.202;12.770;2022-07-18T07:22:43;6.80;;;5.22;;
4363;SDS011;15337;48.202;12.770;2022-07-18T07:25:11;4.95;;;4.75;;
4363;SDS011;15337;48.202;12.770;2022-07-18T07:27:39;5.18;;;4.78;;
4363;SDS011;15337;48.202;12.770;2022-07-18T07:30:07;5.47;;;5.18;;
4363;SDS011;15337;48.202;12.770;2022-07-18T07:32:35;5.18;;;4.88;;
4363;SDS011;15337;48.202;12.770;2022-07-18T07:35:03;5.22;;;4.82;;
4363;SDS011;15337;48.202;12.770;2022-07-18T07:37:31;5.10;;;4.70;;
4363;SDS011;15337;48.202;12.770;2022-07-18T07:39:59;6.20;;;5.30;;
4363;SDS011;15337;48.202;12.770;2022-07-18T07:42:26;7.65;;;4.97;;
4363;SDS011;15337;48.202;12.770;2022-07-18T07:44:53;5.40;;;4.90;;
4363;SDS011;15337;48.202;12.770;2022-07-18T07:47:20;4.30;;;4.10;;
4363;SDS011;15337;48.202;12.770;2022-07-18T07:49:47;5.07;;;4.72;;
4363;SDS011;15337;48.202;12.770;2022-07-18T07:52:14;4.65;;;4.35;;
4363;SDS011;15337;48.202;12.770;2022-07-18T07:54:42;5.03;;;4.82;;
4363;SDS011;15337;48.202;12.770;2022-07-18T07:57:11;5.20;;;4.72;;
4363;SDS011;15337;48.202;12.770;2022-07-18T07:59:39;4.43;;;4.13;;
4363;SDS011;15337;48.202;12.770;2022-07-18T08:02:05;9.25;;;5.03;;
4363;SDS011;15337;48.202;12.770;2022-07-18T08:04:32;4.47;;;4.07;;
4363;SDS011;15337;48.202;12.770;2022-07-18T08:06:59;4.07;;;3.80;;
4363;SDS011;15337;48.202;12.770;2022-07-18T08:09:26;4.30;;;4.00;;
4363;SDS011;15337;48.202;12.770;2022-07-18T08:11:53;4.30;;;4.00;;
4363;SDS011;15337;48.202;12.770;2022-07-18T08:14:22;3.97;;;3.78;;
4363;SDS011;15337;48.202;12.770;2022-07-18T08:16:49;4.65;;;4.25;;
4363;SDS011;15337;48.202;12.770;2022-07-18T08:19:15;4.93;;;4.53;;
4363;SDS011;15337;48.202;12.770;2022-07-18T08:21:42;3.95;;;3.60;;
4363;SDS011;15337;48.202;12.770;2022-07-18T08:24:09;4.53;;;4.32;;
4363;SDS011;15337;48.202;12.770;2022-07-18T08:26:36;6.55;;;3.50;;
4363;SDS011;15337;48.202;12.770;2022-07-18T08:29:04;3.47;;;3.28;;
4363;SDS011;15337;48.202;12.770;2022-07-18T08:31:33;5.53;;;3.70;;
4363;SDS011;15337;48.202;12.770;2022-07-18T08:34:01;3.90;;;3.67;;
4363;SDS011;15337;48.202;12.770;2022-07-18T08:36:28;4.07;;;3.88;;
4363;SDS011;15337;48.202;12.770;2022-07-18T08:38:55;4.38;;;3.13;;
4363;SDS011;15337;48.202;12.770;2022-07-18T08:41:22;3.83;;;3.63;;
4363;SDS011;15337;48.202;12.770;2022-07-18T08:43:50;3.10;;;2.90;;
4363;SDS011;15337;48.202;12.770;2022-07-18T08:46:18;4.45;;;3.17;;
4363;SDS011;15337;48.202;12.770;2022-07-18T08:48:48;3.30;;;2.92;;
4363;SDS011;15337;48.202;12.770;2022-07-18T08:51:15;3.95;;;3.75;;
4363;SDS011;15337;48.202;12.770;2022-07-18T08:53:43;10.38;;;3.13;;
4363;SDS011;15337;48.202;12.770;2022-07-18T08:56:13;3.80;;;3.47;;
4363;SDS011;15337;48.202;12.770;2022-07-18T08:58:40;3.95;;;3.03;;
4363;SDS011;15337;48.202;12.770;2022-07-18T09:01:07;5.85;;;2.85;;
4363;SDS011;15337;48.202;12.770;2022-07-18T09:03:34;3.13;;;2.92;;
4363;SDS011;15337;48.202;12.770;2022-07-18T09:06:09;3.72;;;3.35;;
4363;SDS011;15337;48.202;12.770;2022-07-18T09:08:37;2.58;;;2.40;;
4363;SDS011;15337;48.202;12.770;2022-07-18T09:11:08;2.75;;;2.45;;
4363;SDS011;15337;48.202;12.770;2022-07-18T09:13:39;4.30;;;2.90;;
4363;SDS011;15337;48.202;12.770;2022-07-18T09:16:08;6.20;;;2.78;;
4363;SDS011;15337;48.202;12.770;2022-07-18T09:18:36;3.17;;;2.50;;
4363;SDS011;15337;48.202;12.770;2022-07-18T09:21:05;2.67;;;2.47;;
4363;SDS011;15337;48.202;12.770;2022-07-18T09:23:36;3.40;;;3.20;;
4363;SDS011;15337;48.202;12.770;2022-07-18T09:26:05;7.00;;;2.90;;
4363;SDS011;15337;48.202;12.770;2022-07-18T09:28:46;3.47;;;2.15;;
4363;SDS011;15337;48.202;12.770;2022-07-18T09:31:17;5.80;;;2.78;;
4363;SDS011;15337;48.202;12.770;2022-07-18T09:33:51;2.95;;;2.75;;
4363;SDS011;15337;48.202;12.770;2022-07-18T09:36:18;3.33;;;3.13;;
4363;SDS011;15337;48.202;12.770;2022-07-18T09:38:47;2.70;;;2.47;;
4363;SDS011;15337;48.202;12.770;2022-07-18T09:41:14;2.58;;;2.38;;
4363;SDS011;15337;48.202;12.770;2022-07-18T09:43:41;3.30;;;2.97;;
4363;SDS011;15337;48.202;12.770;2022-07-18T09:46:08;2.83;;;2.63;;
4363;SDS011;15337;48.202;12.770;2022-07-18T09:48:35;4.68;;;2.40;;
4363;SDS011;15337;48.202;12.770;2022-07-18T09:51:03;2.75;;;2.20;;
4363;SDS011;15337;48.202;12.770;2022-07-18T09:53:32;2.92;;;2.50;;
4363;SDS011;15337;48.202;12.770;2022-07-18T09:56:02;2.05;;;1.95;;
4363;SDS011;15337;48.202;12.770;2022-07-18T09:58:32;3.05;;;2.20;;
4363;SDS011;15337;48.202;12.770;2022-07-18T10:01:01;3.15;;;2.30;;
4363;SDS011;15337;48.202;12.770;2022-07-18T10:03:29;2.10;;;2.00;;
4363;SDS011;15337;48.202;12.770;2022-07-18T10:05:57;2.30;;;2.20;;
4363;SDS011;15337;48.202;12.770;2022-07-18T10:08:25;8.93;;;2.72;;
4363;SDS011;15337;48.202;12.770;2022-07-18T10:10:55;2.25;;;2.10;;
4363;SDS011;15337;48.202;12.770;2022-07-18T10:13:26;2.35;;;2.15;;
4363;SDS011;15337;48.202;12.770;2022-07-18T10:15:53;3.45;;;2.30;;
4363;SDS011;15337;48.202;12.770;2022-07-18T10:18:21;2.35;;;2.25;;
4363;SDS011;15337;48.202;12.770;2022-07-18T10:20:50;2.15;;;1.70;;
4363;SDS011;15337;48.202;12.770;2022-07-18T10:23:21;3.60;;;1.90;;
4363;SDS011;15337;48.202;12.770;2022-07-18T10:26:10;4.25;;;2.05;;
4363;SDS011;15337;48.202;12.770;2022-07-18T10:32:01;4.45;;;2.35;;
4363;SDS011;15337;48.202;12.770;2022-07-18T10:34:32;8.82;;;2.22;;
4363;SDS011;15337;48.202;12.770;2022-07-18T10:37:07;2.42;;;2.17;;
4363;SDS011;15337;48.202;12.770;2022-07-18T10:39:36;7.82;;;2.28;;
4363;SDS011;15337;48.202;12.770;2022-07-18T10:42:17;2.47;;;2.17;;
4363;SDS011;15337;48.202;12.770;2022-07-18T10:44:46;1.80;;;1.70;;
4363;SDS011;15337;48.202;12.770;2022-07-18T10:47:15;3.15;;;2.03;;
4363;SDS011;15337;48.202;12.770;2022-07-18T10:50:07;3.63;;;2.35;;
4363;SDS011;15337;48.202;12.770;2022-07-18T10:52:55;3.30;;;1.90;;
4363;SDS011;15337;48.202;12.770;2022-07-18T10:55:29;2.25;;;2.05;;
4363;SDS011;15337;48.202;12.770;2022-07-18T10:58:16;1.73;;;1.63;;
4363;SDS011;15337;48.202;12.770;2022-07-18T11:00:44;3.60;;;2.10;;
4363;SDS011;15337;48.202;12.770;2022-07-18T11:03:16;2.97;;;2.05;;
4363;SDS011;15337;48.202;12.770;2022-07-18T11:05:52;1.63;;;1.52;;
4363;SDS011;15337;48.202;12.770;2022-07-18T11:08:20;1.80;;;1.70;;
4363;SDS011;15337;48.202;12.770;2022-07-18T11:11:11;2.08;;;1.77;;
4363;SDS011;15337;48.202;12.770;2022-07-18T11:13:45;1.88;;;1.77;;
4363;SDS011;15337;48.202;12.770;2022-07-18T11:16:17;1.70;;;1.60;;
4363;SDS011;15337;48.202;12.770;2022-07-18T11:21:55;2.35;;;2.15;;
4363;SDS011;15337;48.202;12.770;2022-07-18T11:24:23;2.20;;;2.00;;
4363;SDS011;15337;48.202;12.770;2022-07-18T11:26:52;1.90;;;1.80;;
4363;SDS011;15337;48.202;12.770;2022-07-18T11:29:19;2.13;;;1.92;;
4363;SDS011;15337;48.202;12.770;2022-07-18T11:31:47;2.58;;;2.22;;
4363;SDS011;15337;48.202;12.770;2022-07-18T11:34:16;2.25;;;1.98;;
4363;SDS011;15337;48.202;12.770;2022-07-18T11:36:44;2.03;;;1.92;;
4363;SDS011;15337;48.202;12.770;2022-07-18T11:39:13;2.60;;;1.90;;
4363;SDS011;15337;48.202;12.770;2022-07-18T11:41:41;2.85;;;2.22;;
4363;SDS011;15337;48.202;12.770;2022-07-18T11:44:17;2.20;;;2.08;;
4363;SDS011;15337;48.202;12.770;2022-07-18T11:46:46;2.10;;;2.00;;
4363;SDS011;15337;48.202;12.770;2022-07-18T11:49:14;8.30;;;1.95;;
4363;SDS011;15337;48.202;12.770;2022-07-18T11:51:43;1.80;;;1.70;;
4363;SDS011;15337;48.202;12.770;2022-07-18T11:54:11;1.50;;;1.40;;
4363;SDS011;15337;48.202;12.770;2022-07-18T11:56:49;1.90;;;1.70;;
4363;SDS011;15337;48.202;12.770;2022-07-18T11:59:17;1.70;;;1.55;;
4363;SDS011;15337;48.202;12.770;2022-07-18T12:01:44;1.80;;;1.70;;
4363;SDS011;15337;48.202;12.770;2022-07-18T12:04:19;1.73;;;1.63;;
4363;SDS011;15337;48.202;12.770;2022-07-18T12:09:39;3.25;;;1.73;;
4363;SDS011;15337;48.202;12.770;2022-07-18T12:12:09;1.45;;;1.35;;
4363;SDS011;15337;48.202;12.770;2022-07-18T12:14:37;2.28;;;2.08;;
4363;SDS011;15337;48.202;12.770;2022-07-18T12:17:05;3.83;;;2.60;;
4363;SDS011;15337;48.202;12.770;2022-07-18T12:19:35;3.55;;;1.90;;
4363;SDS011;15337;48.202;12.770;2022-07-18T12:22:07;2.22;;;1.92;;
4363;SDS011;15337;48.202;12.770;2022-07-18T12:24:36;2.20;;;2.00;;
4363;SDS011;15337;48.202;12.770;2022-07-18T12:29:52;1.55;;;1.45;;
4363;SDS011;15337;48.202;12.770;2022-07-18T12:32:29;1.55;;;1.45;;
4363;SDS011;15337;48.202;12.770;2022-07-18T12:35:04;2.13;;;1.65;;
4363;SDS011;15337;48.202;12.770;2022-07-18T12:37:32;5.05;;;1.63;;
4363;SDS011;15337;48.202;12.770;2022-07-18T12:40:00;2.10;;;1.70;;
4363;SDS011;15337;48.202;12.770;2022-07-18T12:42:30;1.60;;;1.50;;
4363;SDS011;15337;48.202;12.770;2022-07-18T12:44:58;2.08;;;1.98;;
4363;SDS011;15337;48.202;12.770;2022-07-18T12:47:25;1.70;;;1.60;;
4363;SDS011;15337;48.202;12.770;2022-07-18T12:49:52;2.20;;;1.90;;
4363;SDS011;15337;48.202;12.770;2022-07-18T12:52:21;1.80;;;1.70;;
4363;SDS011;15337;48.202;12.770;2022-07-18T12:54:49;4.90;;;1.52;;
4363;SDS011;15337;48.202;12.770;2022-07-18T12:57:16;2.10;;;1.88;;
4363;SDS011;15337;48.202;12.770;2022-07-18T12:59:44;1.58;;;1.48;;
4363;SDS011;15337;48.202;12.770;2022-07-18T13:02:12;2.00;;;1.90;;
4363;SDS011;15337;48.202;12.770;2022-07-18T13:04:40;1.73;;;1.63;;
4363;SDS011;15337;48.202;12.770;2022-07-18T13:07:07;3.72;;;1.50;;
4363;SDS011;15337;48.202;12.770;2022-07-18T13:09:36;1.80;;;1.70;;
4363;SDS011;15337;48.202;12.770;2022-07-18T13:12:03;1.55;;;1.45;;
4363;SDS011;15337;48.202;12.770;2022-07-18T13:14:31;5.97;;;1.50;;
4363;SDS011;15337;48.202;12.770;2022-07-18T13:16:59;2.58;;;1.40;;
4363;SDS011;15337;48.202;12.770;2022-07-18T13:19:26;5.03;;;2.28;;
4363;SDS011;15337;48.202;12.770;2022-07-18T13:21:53;3.30;;;1.95;;
4363;SDS011;15337;48.202;12.770;2022-07-18T13:24:22;3.05;;;1.63;;
4363;SDS011;15337;48.202;12.770;2022-07-18T13:26:50;1.48;;;1.38;;
4363;SDS011;15337;48.202;12.770;2022-07-18T13:29:17;1.73;;;1.60;;
4363;SDS011;15337;48.202;12.770;2022-07-18T13:31:44;2.58;;;2.10;;
4363;SDS011;15337;48.202;12.770;2022-07-18T13:34:11;2.10;;;2.00;;
4363;SDS011;15337;48.202;12.770;2022-07-18T13:36:38;1.42;;;1.33;;
4363;SDS011;15337;48.202;12.770;2022-07-18T13:39:05;1.70;;;1.60;;
4363;SDS011;15337;48.202;12.770;2022-07-18T13:41:32;1.90;;;1.80;;
4363;SDS011;15337;48.202;12.770;2022-07-18T13:44:00;1.77;;;1.50;;
4363;SDS011;15337;48.202;12.770;2022-07-18T13:46:27;1.67;;;1.58;;
4363;SDS011;15337;48.202;12.770;2022-07-18T13:48:54;2.90;;;1.60;;
4363;SDS011;15337;48.202;12.770;2022-07-18T13:51:21;1.48;;;1.38;;
4363;SDS011;15337;48.202;12.770;2022-07-18T13:53:48;7.95;;;1.85;;
4363;SDS011;15337;48.202;12.770;2022-07-18T13:56:15;1.60;;;1.50;;
4363;SDS011;15337;48.202;12.770;2022-07-18T13:58:42;1.73;;;1.63;;
4363;SDS011;15337;48.202;12.770;2022-07-18T14:01:10;1.60;;;1.50;;
4363;SDS011;15337;48.202;12.770;2022-07-18T14:03:38;5.70;;;1.65;;
4363;SDS011;15337;48.202;12.770;2022-07-18T14:06:05;1.35;;;1.25;;
4363;SDS011;15337;48.202;12.770;2022-07-18T14:08:32;2.72;;;1.52;;
4363;SDS011;15337;48.202;12.770;2022-07-18T14:10:59;1.70;;;1.52;;
4363;SDS011;15337;48.202;12.770;2022-07-18T14:13:26;3.05;;;1.35;;
4363;SDS011;15337;48.202;12.770;2022-07-18T14:15:53;6.47;;;1.83;;
4363;SDS011;15337;48.202;12.770;2022-07-18T14:18:21;1.80;;;1.70;;
4363;SDS011;15337;48.202;12.770;2022-07-18T14:20:48;2.78;;;1.60;;
4363;SDS011;15337;48.202;12.770;2022-07-18T14:23:15;3.67;;;1.33;;
4363;SDS011;15337;48.202;12.770;2022-07-18T14:25:42;4.45;;;1.40;;
4363;SDS011;15337;48.202;12.770;2022-07-18T14:28:11;1.77;;;1.40;;
4363;SDS011;15337;48.202;12.770;2022-07-18T14:30:38;3.22;;;1.45;;
4363;SDS011;15337;48.202;12.770;2022-07-18T14:33:05;3.83;;;3.63;;
4363;SDS011;15337;48.202;12.770;2022-07-18T14:35:33;1.45;;;1.35;;
4363;SDS011;15337;48.202;12.770;2022-07-18T14:38:00;1.65;;;1.42;;
4363;SDS011;15337;48.202;12.770;2022-07-18T14:40:27;1.52;;;1.17;;
4363;SDS011;15337;48.202;12.770;2022-07-18T14:42:54;2.05;;;1.38;;
4363;SDS011;15337;48.202;12.770;2022-07-18T14:45:21;1.85;;;1.45;;
4363;SDS011;15337;48.202;12.770;2022-07-18T14:47:48;1.60;;;1.50;;
4363;SDS011;15337;48.202;12.770;2022-07-18T14:50:15;2.85;;;1.60;;
4363;SDS011;15337;48.202;12.770;2022-07-18T14:52:43;1.55;;;1.45;;
4363;SDS011;15337;48.202;12.770;2022-07-18T14:55:10;2.15;;;1.50;;
4363;SDS011;15337;48.202;12.770;2022-07-18T14:57:37;1.40;;;1.30;;
4363;SDS011;15337;48.202;12.770;2022-07-18T15:00:05;2.85;;;1.38;;
4363;SDS011;15337;48.202;12.770;2022-07-18T15:02:34;1.70;;;1.50;;
4363;SDS011;15337;48.202;12.770;2022-07-18T15:05:01;2.13;;;1.33;;
4363;SDS011;15337;48.202;12.770;2022-07-18T15:07:29;1.67;;;1.58;;